DAL76 KALB-TXKF
Flight info
| Callsign | DAL76 |
|---|---|
| Flight time | 1h 49m |
| Altitude | 37000 |
| Route | NELIE DCT ACK DCT BORQE Y578 KAYYT/M078F370 L462 ANVER MOMOM1 |
| Aircraft | A321/M-SDE3FGHIRWY/LB1 |
Departure
| Time | 2026-04-26 12:59 |
|---|---|
| Airport | Albany International Airport (KALB) |
Arrival
| Time | 2026-04-26 14:48 |
|---|---|
| Airport | L.F. Wade International Airport (TXKF) |
| Time | Latitude | Longitude | Altitude | Speed | Heading |
|---|---|---|---|---|---|
| 2026-04-26 12:33 | 42.74735 | -73.81114 | 284 ft | 0 kts | 165° |
| 2026-04-26 12:45 | 42.74739 | -73.81115 | 284 ft | 3 kts | 163° |
| 2026-04-26 12:46 | 42.74760 | -73.81132 | 286 ft | 4 kts | 120° |
| 2026-04-26 12:46 | 42.74768 | -73.81165 | 286 ft | 3 kts | 92° |
| 2026-04-26 12:46 | 42.74768 | -73.81177 | 286 ft | 0 kts | 92° |
| 2026-04-26 12:53 | 42.74768 | -73.81176 | 286 ft | 1 kts | 92° |
| 2026-04-26 12:53 | 42.74768 | -73.81148 | 286 ft | 2 kts | 86° |
| 2026-04-26 12:53 | 42.74769 | -73.81140 | 286 ft | 0 kts | 82° |
| 2026-04-26 12:54 | 42.74778 | -73.81098 | 289 ft | 10 kts | 71° |
| 2026-04-26 12:54 | 42.74797 | -73.80991 | 286 ft | 13 kts | 81° |
| 2026-04-26 12:54 | 42.74813 | -73.80864 | 287 ft | 12 kts | 81° |
| 2026-04-26 12:54 | 42.74819 | -73.80711 | 291 ft | 21 kts | 88° |
| 2026-04-26 12:55 | 42.74759 | -73.80623 | 293 ft | 10 kts | 188° |
| 2026-04-26 12:55 | 42.74692 | -73.80620 | 292 ft | 10 kts | 177° |
| 2026-04-26 12:55 | 42.74594 | -73.80613 | 293 ft | 21 kts | 177° |
| 2026-04-26 12:55 | 42.74415 | -73.80604 | 295 ft | 31 kts | 178° |
| 2026-04-26 12:56 | 42.74197 | -73.80597 | 292 ft | 31 kts | 179° |
| 2026-04-26 12:56 | 42.74024 | -73.80592 | 286 ft | 21 kts | 174° |
| 2026-04-26 12:56 | 42.73877 | -73.80590 | 286 ft | 21 kts | 180° |
| 2026-04-26 12:56 | 42.73747 | -73.80609 | 289 ft | 16 kts | 211° |
| 2026-04-26 12:57 | 42.73689 | -73.80591 | 289 ft | 8 kts | 72° |
| 2026-04-26 12:57 | 42.73723 | -73.80521 | 287 ft | 10 kts | 62° |
| 2026-04-26 12:57 | 42.73755 | -73.80436 | 283 ft | 10 kts | 38° |
| 2026-04-26 12:58 | 42.73950 | -73.80436 | 286 ft | 48 kts | 358° |
| 2026-04-26 12:58 | 42.74529 | -73.80461 | 294 ft | 115 kts | 358° |
| 2026-04-26 12:58 | 42.75506 | -73.80504 | 303 ft | 162 kts | 358° |
| 2026-04-26 12:58 | 42.76663 | -73.80495 | 801 ft | 168 kts | 5° |
| 2026-04-26 12:59 | 42.77779 | -73.79953 | 1329 ft | 180 kts | 36° |
| 2026-04-26 12:59 | 42.78377 | -73.78486 | 1935 ft | 187 kts | 84° |
| 2026-04-26 12:59 | 42.77950 | -73.76777 | 2254 ft | 204 kts | 126° |
| 2026-04-26 12:59 | 42.76991 | -73.75349 | 2638 ft | 213 kts | 133° |
| 2026-04-26 13:00 | 42.75823 | -73.73909 | 2865 ft | 240 kts | 136° |
| 2026-04-26 13:00 | 42.74511 | -73.72368 | 3398 ft | 256 kts | 136° |
| 2026-04-26 13:00 | 42.73162 | -73.70759 | 4266 ft | 259 kts | 136° |
| 2026-04-26 13:00 | 42.71824 | -73.69118 | 5178 ft | 261 kts | 135° |
| 2026-04-26 13:01 | 42.70484 | -73.67437 | 6045 ft | 264 kts | 134° |
| 2026-04-26 13:01 | 42.69140 | -73.65711 | 6853 ft | 268 kts | 134° |
| 2026-04-26 13:01 | 42.67777 | -73.63940 | 7599 ft | 274 kts | 134° |
| 2026-04-26 13:01 | 42.66407 | -73.62151 | 8307 ft | 279 kts | 134° |
| 2026-04-26 13:02 | 42.64993 | -73.60293 | 9027 ft | 286 kts | 133° |
| 2026-04-26 13:02 | 42.63550 | -73.58392 | 9741 ft | 292 kts | 134° |
| 2026-04-26 13:02 | 42.62073 | -73.56448 | 10287 ft | 305 kts | 134° |
| 2026-04-26 13:02 | 42.60491 | -73.54374 | 10464 ft | 327 kts | 135° |
| 2026-04-26 13:03 | 42.58793 | -73.52157 | 10606 ft | 349 kts | 135° |
| 2026-04-26 13:03 | 42.57020 | -73.49843 | 11099 ft | 358 kts | 135° |
| 2026-04-26 13:03 | 42.55209 | -73.47488 | 11743 ft | 363 kts | 135° |
| 2026-04-26 13:03 | 42.53369 | -73.45098 | 12422 ft | 369 kts | 135° |
| 2026-04-26 13:04 | 42.51506 | -73.42667 | 13067 ft | 374 kts | 135° |
| 2026-04-26 13:04 | 42.49640 | -73.40234 | 13726 ft | 381 kts | 135° |
| 2026-04-26 13:04 | 42.47727 | -73.37739 | 14314 ft | 384 kts | 135° |
| 2026-04-26 13:04 | 42.45795 | -73.35232 | 14849 ft | 387 kts | 135° |
| 2026-04-26 13:05 | 42.43835 | -73.32691 | 15389 ft | 393 kts | 135° |
| 2026-04-26 13:05 | 42.41851 | -73.30120 | 15951 ft | 397 kts | 135° |
| 2026-04-26 13:05 | 42.39850 | -73.27528 | 16624 ft | 399 kts | 135° |
| 2026-04-26 13:05 | 42.37840 | -73.24922 | 17195 ft | 403 kts | 135° |
| 2026-04-26 13:06 | 42.35803 | -73.22285 | 17717 ft | 406 kts | 136° |
| 2026-04-26 13:06 | 42.33743 | -73.19628 | 18205 ft | 412 kts | 135° |
| 2026-04-26 13:06 | 42.31666 | -73.16939 | 18715 ft | 418 kts | 136° |
| 2026-04-26 13:06 | 42.29556 | -73.14236 | 19162 ft | 416 kts | 137° |
| 2026-04-26 13:07 | 42.27440 | -73.11504 | 19592 ft | 422 kts | 136° |
| 2026-04-26 13:07 | 42.25315 | -73.08758 | 20068 ft | 425 kts | 136° |
| 2026-04-26 13:07 | 42.23178 | -73.06003 | 20550 ft | 427 kts | 136° |
| 2026-04-26 13:07 | 42.21041 | -73.03255 | 21021 ft | 430 kts | 137° |
| 2026-04-26 13:08 | 42.18867 | -73.00460 | 21497 ft | 433 kts | 137° |
| 2026-04-26 13:08 | 42.16681 | -72.97646 | 21976 ft | 436 kts | 137° |
| 2026-04-26 13:08 | 42.14480 | -72.94822 | 22433 ft | 438 kts | 137° |
| 2026-04-26 13:08 | 42.12269 | -72.91991 | 22970 ft | 439 kts | 139° |
| 2026-04-26 13:09 | 42.10055 | -72.89161 | 23480 ft | 441 kts | 139° |
| 2026-04-26 13:09 | 42.07817 | -72.86309 | 23907 ft | 443 kts | 139° |
| 2026-04-26 13:09 | 42.05580 | -72.83460 | 24281 ft | 446 kts | 139° |
| 2026-04-26 13:09 | 42.03313 | -72.80580 | 24662 ft | 448 kts | 139° |
| 2026-04-26 13:10 | 42.01047 | -72.77701 | 25032 ft | 450 kts | 140° |
| 2026-04-26 13:10 | 41.98760 | -72.74795 | 25391 ft | 453 kts | 140° |
| 2026-04-26 13:10 | 41.96565 | -72.71818 | 25740 ft | 458 kts | 133° |
| 2026-04-26 13:10 | 41.94664 | -72.68361 | 26088 ft | 463 kts | 124° |
| 2026-04-26 13:11 | 41.93178 | -72.64521 | 26417 ft | 468 kts | 114° |
| 2026-04-26 13:11 | 41.92114 | -72.60362 | 26748 ft | 472 kts | 109° |
| 2026-04-26 13:11 | 41.91145 | -72.56153 | 27067 ft | 475 kts | 110° |
| 2026-04-26 13:11 | 41.90152 | -72.51904 | 27415 ft | 477 kts | 110° |
| 2026-04-26 13:12 | 41.89146 | -72.47673 | 27729 ft | 479 kts | 110° |
| 2026-04-26 13:12 | 41.88122 | -72.43383 | 28045 ft | 482 kts | 110° |
| 2026-04-26 13:12 | 41.87114 | -72.39155 | 28346 ft | 484 kts | 110° |
| 2026-04-26 13:12 | 41.86090 | -72.34839 | 28644 ft | 487 kts | 110° |
| 2026-04-26 13:13 | 41.85058 | -72.30497 | 28950 ft | 489 kts | 111° |
| 2026-04-26 13:13 | 41.84020 | -72.26143 | 29257 ft | 492 kts | 111° |
| 2026-04-26 13:13 | 41.82980 | -72.21780 | 29504 ft | 494 kts | 112° |
| 2026-04-26 13:13 | 41.81926 | -72.17368 | 29802 ft | 497 kts | 112° |
| 2026-04-26 13:14 | 41.80872 | -72.12953 | 30132 ft | 499 kts | 112° |
| 2026-04-26 13:14 | 41.79813 | -72.08519 | 30507 ft | 498 kts | 112° |
| 2026-04-26 13:14 | 41.78759 | -72.04112 | 30861 ft | 497 kts | 112° |
| 2026-04-26 13:14 | 41.77699 | -71.99694 | 31215 ft | 497 kts | 112° |
| 2026-04-26 13:15 | 41.76639 | -71.95304 | 31578 ft | 496 kts | 112° |
| 2026-04-26 13:15 | 41.75574 | -71.90903 | 31936 ft | 495 kts | 112° |
| 2026-04-26 13:15 | 41.74527 | -71.86587 | 32284 ft | 495 kts | 112° |
| 2026-04-26 13:15 | 41.73459 | -71.82196 | 32646 ft | 495 kts | 112° |
| 2026-04-26 13:16 | 41.72392 | -71.77818 | 33019 ft | 494 kts | 112° |
| 2026-04-26 13:16 | 41.71326 | -71.73448 | 33388 ft | 493 kts | 112° |
| 2026-04-26 13:16 | 41.70268 | -71.69096 | 33743 ft | 493 kts | 112° |
| 2026-04-26 13:16 | 41.69206 | -71.64723 | 34089 ft | 493 kts | 112° |
| 2026-04-26 13:17 | 41.67083 | -71.56020 | 34696 ft | 492 kts | 112° |
| 2026-04-26 13:17 | 41.66015 | -71.51671 | 34942 ft | 492 kts | 112° |
| 2026-04-26 13:18 | 41.63867 | -71.42960 | 35464 ft | 493 kts | 112° |
| 2026-04-26 13:18 | 41.62792 | -71.38613 | 35749 ft | 492 kts | 112° |
| 2026-04-26 13:18 | 41.60653 | -71.30006 | 36299 ft | 491 kts | 112° |
| 2026-04-26 13:19 | 41.59580 | -71.25683 | 36556 ft | 490 kts | 112° |
| 2026-04-26 13:19 | 41.58509 | -71.21361 | 36797 ft | 490 kts | 112° |
| 2026-04-26 13:19 | 41.57436 | -71.17051 | 37042 ft | 489 kts | 112° |
| 2026-04-26 13:19 | 41.56359 | -71.12743 | 37168 ft | 489 kts | 112° |
| 2026-04-26 13:20 | 41.55280 | -71.08442 | 37185 ft | 488 kts | 112° |
| 2026-04-26 13:20 | 41.53124 | -70.99869 | 37190 ft | 487 kts | 112° |
| 2026-04-26 13:21 | 41.50981 | -70.91358 | 37187 ft | 487 kts | 112° |
| 2026-04-26 13:21 | 41.48818 | -70.82796 | 37190 ft | 488 kts | 112° |
| 2026-04-26 13:22 | 41.46643 | -70.74217 | 37186 ft | 489 kts | 112° |
| 2026-04-26 13:22 | 41.44429 | -70.65543 | 37191 ft | 499 kts | 112° |
| 2026-04-26 13:23 | 41.42182 | -70.56723 | 37194 ft | 504 kts | 112° |
| 2026-04-26 13:23 | 41.39928 | -70.47924 | 37186 ft | 507 kts | 112° |
| 2026-04-26 13:24 | 41.37638 | -70.39033 | 37195 ft | 508 kts | 113° |
| 2026-04-26 13:24 | 41.35346 | -70.30149 | 37179 ft | 507 kts | 112° |
| 2026-04-26 13:25 | 41.33043 | -70.21273 | 37204 ft | 508 kts | 113° |
| 2026-04-26 13:25 | 41.30726 | -70.12389 | 37187 ft | 509 kts | 113° |
| 2026-04-26 13:26 | 41.28069 | -70.03710 | 37201 ft | 503 kts | 124° |
| 2026-04-26 13:26 | 41.23929 | -69.96401 | 37177 ft | 492 kts | 139° |
| 2026-04-26 13:27 | 41.19356 | -69.89723 | 37188 ft | 492 kts | 138° |
| 2026-04-26 13:27 | 41.14765 | -69.82963 | 37190 ft | 494 kts | 138° |
| 2026-04-26 13:28 | 41.10158 | -69.76183 | 37190 ft | 495 kts | 138° |
| 2026-04-26 13:28 | 41.05526 | -69.69412 | 37198 ft | 496 kts | 138° |
| 2026-04-26 13:29 | 41.00879 | -69.62647 | 37213 ft | 497 kts | 138° |
| 2026-04-26 13:29 | 40.96253 | -69.55927 | 37219 ft | 497 kts | 138° |
| 2026-04-26 13:30 | 40.91583 | -69.49176 | 37218 ft | 498 kts | 138° |
| 2026-04-26 13:30 | 40.86903 | -69.42438 | 37206 ft | 498 kts | 138° |
| 2026-04-26 13:31 | 40.82214 | -69.35705 | 37204 ft | 498 kts | 138° |
| 2026-04-26 13:31 | 40.77520 | -69.28970 | 37211 ft | 499 kts | 138° |
| 2026-04-26 13:32 | 40.72821 | -69.22239 | 37214 ft | 499 kts | 138° |
| 2026-04-26 13:32 | 40.68148 | -69.15564 | 37167 ft | 499 kts | 139° |
| 2026-04-26 13:33 | 40.63435 | -69.08852 | 37187 ft | 499 kts | 139° |
| 2026-04-26 13:33 | 40.58717 | -69.02140 | 37195 ft | 500 kts | 139° |
| 2026-04-26 13:34 | 40.53990 | -68.95434 | 37200 ft | 500 kts | 139° |
| 2026-04-26 13:34 | 40.49259 | -68.88737 | 37206 ft | 500 kts | 139° |
| 2026-04-26 13:35 | 40.44530 | -68.82051 | 37199 ft | 500 kts | 139° |
| 2026-04-26 13:35 | 40.39813 | -68.75402 | 37168 ft | 501 kts | 139° |
| 2026-04-26 13:36 | 40.35053 | -68.68719 | 37181 ft | 501 kts | 139° |
| 2026-04-26 13:36 | 40.30297 | -68.62038 | 37200 ft | 502 kts | 139° |
| 2026-04-26 13:37 | 40.25531 | -68.55357 | 37197 ft | 502 kts | 139° |
| 2026-04-26 13:37 | 40.20756 | -68.48702 | 37177 ft | 502 kts | 139° |
| 2026-04-26 13:38 | 40.15996 | -68.42076 | 37168 ft | 503 kts | 139° |
| 2026-04-26 13:38 | 40.11201 | -68.35406 | 37155 ft | 504 kts | 139° |
| 2026-04-26 13:39 | 40.06397 | -68.28732 | 37161 ft | 505 kts | 139° |
| 2026-04-26 13:39 | 40.01583 | -68.22056 | 37183 ft | 505 kts | 139° |
| 2026-04-26 13:40 | 39.96733 | -68.15413 | 37166 ft | 504 kts | 143° |
| 2026-04-26 13:40 | 39.91174 | -68.10143 | 37176 ft | 487 kts | 160° |
| 2026-04-26 13:41 | 39.85054 | -68.06770 | 37137 ft | 480 kts | 166° |
| 2026-04-26 13:41 | 39.78835 | -68.03568 | 37143 ft | 481 kts | 166° |
| 2026-04-26 13:42 | 39.72610 | -68.00361 | 37152 ft | 481 kts | 166° |
| 2026-04-26 13:42 | 39.66381 | -67.97153 | 37163 ft | 482 kts | 166° |
| 2026-04-26 13:43 | 39.60138 | -67.93953 | 37137 ft | 483 kts | 166° |
| 2026-04-26 13:43 | 39.53896 | -67.90761 | 37150 ft | 483 kts | 166° |
| 2026-04-26 13:44 | 39.47632 | -67.87566 | 37156 ft | 483 kts | 166° |
| 2026-04-26 13:44 | 39.41411 | -67.84388 | 37153 ft | 484 kts | 166° |
| 2026-04-26 13:45 | 39.35149 | -67.81197 | 37124 ft | 484 kts | 166° |
| 2026-04-26 13:45 | 39.28877 | -67.78024 | 37131 ft | 485 kts | 166° |
| 2026-04-26 13:46 | 39.22607 | -67.74853 | 37135 ft | 485 kts | 166° |
| 2026-04-26 13:46 | 39.16309 | -67.71673 | 37142 ft | 486 kts | 166° |
| 2026-04-26 13:47 | 39.10054 | -67.68514 | 37140 ft | 486 kts | 166° |
| 2026-04-26 13:47 | 39.03750 | -67.65345 | 37155 ft | 486 kts | 166° |
| 2026-04-26 13:48 | 38.97453 | -67.62175 | 37157 ft | 486 kts | 166° |
| 2026-04-26 13:48 | 38.91161 | -67.59019 | 37120 ft | 486 kts | 166° |
| 2026-04-26 13:49 | 38.84879 | -67.55835 | 37140 ft | 485 kts | 165° |
| 2026-04-26 13:49 | 38.78694 | -67.52468 | 37142 ft | 486 kts | 163° |
| 2026-04-26 13:50 | 38.72506 | -67.48989 | 37143 ft | 486 kts | 163° |
| 2026-04-26 13:50 | 38.66303 | -67.45569 | 37110 ft | 486 kts | 164° |
| 2026-04-26 13:51 | 38.60087 | -67.42190 | 37146 ft | 484 kts | 164° |
| 2026-04-26 13:51 | 38.53897 | -67.38849 | 37153 ft | 483 kts | 165° |
| 2026-04-26 13:52 | 38.47759 | -67.35527 | 37138 ft | 482 kts | 165° |
| 2026-04-26 13:52 | 38.41580 | -67.32181 | 37142 ft | 482 kts | 165° |
| 2026-04-26 13:53 | 38.35406 | -67.28835 | 37142 ft | 482 kts | 165° |
| 2026-04-26 13:53 | 38.29238 | -67.25510 | 37144 ft | 481 kts | 165° |
| 2026-04-26 13:54 | 38.23069 | -67.22196 | 37147 ft | 481 kts | 165° |
| 2026-04-26 13:54 | 38.16904 | -67.18886 | 37113 ft | 481 kts | 165° |
| 2026-04-26 13:55 | 38.08689 | -67.14487 | 37134 ft | 482 kts | 165° |
| 2026-04-26 13:56 | 37.98423 | -67.08988 | 37146 ft | 482 kts | 165° |
| 2026-04-26 13:56 | 37.92244 | -67.05698 | 37120 ft | 481 kts | 165° |
| 2026-04-26 13:57 | 37.86073 | -67.02411 | 37143 ft | 481 kts | 165° |
| 2026-04-26 13:57 | 37.79956 | -66.99165 | 37149 ft | 480 kts | 165° |
| 2026-04-26 13:58 | 37.73801 | -66.95889 | 37142 ft | 479 kts | 165° |
| 2026-04-26 13:58 | 37.67647 | -66.92643 | 37124 ft | 479 kts | 166° |
| 2026-04-26 13:59 | 37.61488 | -66.89399 | 37150 ft | 480 kts | 166° |
| 2026-04-26 13:59 | 37.55322 | -66.86146 | 37147 ft | 480 kts | 165° |
| 2026-04-26 14:00 | 37.43039 | -66.79683 | 37119 ft | 480 kts | 165° |
| 2026-04-26 14:01 | 37.36881 | -66.76440 | 37137 ft | 480 kts | 165° |
| 2026-04-26 14:01 | 37.30714 | -66.73221 | 37141 ft | 479 kts | 165° |
| 2026-04-26 14:02 | 37.24550 | -66.70004 | 37150 ft | 480 kts | 165° |
| 2026-04-26 14:02 | 37.19422 | -66.67327 | 37129 ft | 480 kts | 165° |
| 2026-04-26 14:03 | 37.13268 | -66.64115 | 37134 ft | 479 kts | 165° |
| 2026-04-26 14:03 | 37.06100 | -66.60386 | 37147 ft | 479 kts | 165° |
| 2026-04-26 14:04 | 36.99948 | -66.57202 | 37148 ft | 479 kts | 165° |
| 2026-04-26 14:04 | 36.94828 | -66.54559 | 37112 ft | 479 kts | 165° |
| 2026-04-26 14:05 | 36.88664 | -66.51384 | 37145 ft | 479 kts | 165° |
| 2026-04-26 14:05 | 36.82509 | -66.48191 | 37158 ft | 478 kts | 165° |
| 2026-04-26 14:06 | 36.76362 | -66.45014 | 37160 ft | 478 kts | 165° |
| 2026-04-26 14:06 | 36.70212 | -66.41848 | 37164 ft | 478 kts | 165° |
| 2026-04-26 14:07 | 36.64066 | -66.38693 | 37159 ft | 477 kts | 165° |
| 2026-04-26 14:07 | 36.57927 | -66.35541 | 37164 ft | 477 kts | 165° |
| 2026-04-26 14:08 | 36.51836 | -66.32414 | 37155 ft | 477 kts | 165° |
| 2026-04-26 14:08 | 36.45698 | -66.29299 | 37153 ft | 477 kts | 165° |
| 2026-04-26 14:09 | 36.39553 | -66.26170 | 37145 ft | 477 kts | 165° |
| 2026-04-26 14:09 | 36.33412 | -66.23029 | 37155 ft | 478 kts | 164° |
| 2026-04-26 14:10 | 36.27259 | -66.19910 | 37152 ft | 478 kts | 165° |
| 2026-04-26 14:10 | 36.21144 | -66.16809 | 37150 ft | 478 kts | 165° |
| 2026-04-26 14:11 | 36.11918 | -66.12126 | 37155 ft | 478 kts | 164° |
| 2026-04-26 14:11 | 36.05766 | -66.09005 | 37151 ft | 478 kts | 164° |
| 2026-04-26 14:12 | 35.99624 | -66.05912 | 37156 ft | 477 kts | 164° |
| 2026-04-26 14:12 | 35.93466 | -66.02815 | 37165 ft | 477 kts | 165° |
| 2026-04-26 14:13 | 35.84278 | -65.98198 | 37162 ft | 477 kts | 164° |
| 2026-04-26 14:14 | 35.78133 | -65.95107 | 37156 ft | 477 kts | 165° |
| 2026-04-26 14:14 | 35.71989 | -65.92039 | 37137 ft | 477 kts | 164° |
| 2026-04-26 14:15 | 35.65839 | -65.88973 | 37123 ft | 477 kts | 164° |
| 2026-04-26 14:15 | 35.59678 | -65.85900 | 37145 ft | 478 kts | 164° |
| 2026-04-26 14:16 | 35.53554 | -65.82840 | 37155 ft | 478 kts | 164° |
| 2026-04-26 14:16 | 35.47384 | -65.79764 | 37162 ft | 478 kts | 164° |
| 2026-04-26 14:17 | 35.41223 | -65.76705 | 37139 ft | 477 kts | 164° |
| 2026-04-26 14:17 | 35.35062 | -65.73665 | 37149 ft | 478 kts | 164° |
| 2026-04-26 14:18 | 35.28936 | -65.70632 | 37155 ft | 478 kts | 164° |
| 2026-04-26 14:18 | 35.22661 | -65.68236 | 37156 ft | 467 kts | 177° |
| 2026-04-26 14:19 | 35.16263 | -65.66923 | 37139 ft | 466 kts | 176° |
| 2026-04-26 14:19 | 35.09869 | -65.65595 | 37143 ft | 467 kts | 176° |
| 2026-04-26 14:20 | 35.03466 | -65.64270 | 37153 ft | 466 kts | 176° |
| 2026-04-26 14:20 | 34.97064 | -65.62951 | 37154 ft | 466 kts | 176° |
| 2026-04-26 14:21 | 34.90711 | -65.61636 | 37138 ft | 466 kts | 176° |
| 2026-04-26 14:21 | 34.84313 | -65.60313 | 37151 ft | 466 kts | 176° |
| 2026-04-26 14:22 | 34.77912 | -65.58999 | 37154 ft | 466 kts | 176° |
| 2026-04-26 14:22 | 34.71512 | -65.57676 | 37161 ft | 466 kts | 176° |
| 2026-04-26 14:23 | 34.65110 | -65.56363 | 37145 ft | 466 kts | 176° |
| 2026-04-26 14:23 | 34.58762 | -65.55067 | 37153 ft | 466 kts | 176° |
| 2026-04-26 14:24 | 34.52365 | -65.53762 | 37153 ft | 466 kts | 176° |
| 2026-04-26 14:24 | 34.45984 | -65.52459 | 37150 ft | 465 kts | 176° |
| 2026-04-26 14:25 | 34.39605 | -65.51160 | 37133 ft | 465 kts | 176° |
| 2026-04-26 14:25 | 34.33229 | -65.49853 | 37138 ft | 465 kts | 176° |
| 2026-04-26 14:26 | 34.26893 | -65.48564 | 37144 ft | 465 kts | 176° |
| 2026-04-26 14:26 | 34.20517 | -65.47284 | 36965 ft | 466 kts | 176° |
| 2026-04-26 14:26 | 34.17328 | -65.46638 | 36554 ft | 464 kts | 175° |
| 2026-04-26 14:27 | 34.14124 | -65.45990 | 35858 ft | 467 kts | 175° |
| 2026-04-26 14:27 | 34.10908 | -65.45343 | 34970 ft | 470 kts | 175° |
| 2026-04-26 14:27 | 34.07674 | -65.44690 | 34084 ft | 473 kts | 175° |
| 2026-04-26 14:27 | 34.04422 | -65.44031 | 33046 ft | 476 kts | 174° |
| 2026-04-26 14:28 | 34.01151 | -65.43367 | 32069 ft | 477 kts | 174° |
| 2026-04-26 14:28 | 33.97914 | -65.42710 | 31114 ft | 479 kts | 174° |
| 2026-04-26 14:28 | 33.94633 | -65.42047 | 30465 ft | 477 kts | 174° |
| 2026-04-26 14:28 | 33.91347 | -65.41382 | 29757 ft | 479 kts | 174° |
| 2026-04-26 14:29 | 33.88054 | -65.40718 | 29107 ft | 480 kts | 174° |
| 2026-04-26 14:29 | 33.84752 | -65.40052 | 28459 ft | 483 kts | 174° |
| 2026-04-26 14:29 | 33.81434 | -65.39383 | 27808 ft | 484 kts | 174° |
| 2026-04-26 14:29 | 33.78102 | -65.38713 | 27161 ft | 487 kts | 174° |
| 2026-04-26 14:30 | 33.74756 | -65.38045 | 26519 ft | 488 kts | 174° |
| 2026-04-26 14:30 | 33.71403 | -65.37376 | 25862 ft | 487 kts | 174° |
| 2026-04-26 14:30 | 33.68064 | -65.36709 | 25228 ft | 484 kts | 174° |
| 2026-04-26 14:30 | 33.64751 | -65.36049 | 24628 ft | 481 kts | 173° |
| 2026-04-26 14:31 | 33.61464 | -65.35394 | 24014 ft | 478 kts | 173° |
| 2026-04-26 14:31 | 33.58197 | -65.34749 | 23386 ft | 474 kts | 173° |
| 2026-04-26 14:31 | 33.54997 | -65.34125 | 22823 ft | 470 kts | 174° |
| 2026-04-26 14:31 | 33.51777 | -65.33499 | 22296 ft | 467 kts | 173° |
| 2026-04-26 14:32 | 33.48587 | -65.32881 | 21777 ft | 463 kts | 173° |
| 2026-04-26 14:32 | 33.45421 | -65.32266 | 21270 ft | 459 kts | 173° |
| 2026-04-26 14:32 | 33.42278 | -65.31656 | 20757 ft | 456 kts | 173° |
| 2026-04-26 14:32 | 33.39161 | -65.31045 | 20235 ft | 452 kts | 173° |
| 2026-04-26 14:33 | 33.36076 | -65.30438 | 19708 ft | 448 kts | 173° |
| 2026-04-26 14:33 | 33.33012 | -65.29834 | 19179 ft | 444 kts | 173° |
| 2026-04-26 14:33 | 33.29977 | -65.29232 | 18639 ft | 440 kts | 173° |
| 2026-04-26 14:33 | 33.26967 | -65.28641 | 18056 ft | 436 kts | 173° |
| 2026-04-26 14:34 | 33.23983 | -65.28060 | 17512 ft | 433 kts | 173° |
| 2026-04-26 14:34 | 33.21066 | -65.27495 | 16985 ft | 429 kts | 173° |
| 2026-04-26 14:34 | 33.18149 | -65.26931 | 16307 ft | 425 kts | 173° |
| 2026-04-26 14:34 | 33.15234 | -65.26363 | 15786 ft | 420 kts | 173° |
| 2026-04-26 14:35 | 33.12364 | -65.25803 | 15265 ft | 416 kts | 173° |
| 2026-04-26 14:35 | 33.09521 | -65.25247 | 14737 ft | 412 kts | 173° |
| 2026-04-26 14:35 | 33.06705 | -65.24686 | 14220 ft | 409 kts | 171° |
| 2026-04-26 14:35 | 33.03984 | -65.23728 | 13668 ft | 407 kts | 163° |
| 2026-04-26 14:36 | 33.01316 | -65.22644 | 13135 ft | 404 kts | 163° |
| 2026-04-26 14:36 | 32.98699 | -65.21573 | 12615 ft | 401 kts | 162° |
| 2026-04-26 14:36 | 32.96069 | -65.20497 | 12083 ft | 398 kts | 162° |
| 2026-04-26 14:36 | 32.93458 | -65.19431 | 11548 ft | 396 kts | 162° |
| 2026-04-26 14:37 | 32.90861 | -65.18374 | 11003 ft | 392 kts | 162° |
| 2026-04-26 14:37 | 32.88290 | -65.17333 | 10480 ft | 388 kts | 162° |
| 2026-04-26 14:37 | 32.85738 | -65.16302 | 9922 ft | 386 kts | 162° |
| 2026-04-26 14:37 | 32.83199 | -65.15274 | 9549 ft | 385 kts | 162° |
| 2026-04-26 14:38 | 32.80667 | -65.14243 | 9172 ft | 384 kts | 162° |
| 2026-04-26 14:38 | 32.78150 | -65.13220 | 8789 ft | 381 kts | 162° |
| 2026-04-26 14:38 | 32.75642 | -65.12204 | 8420 ft | 380 kts | 162° |
| 2026-04-26 14:38 | 32.73137 | -65.11190 | 8053 ft | 379 kts | 162° |
| 2026-04-26 14:39 | 32.70644 | -65.10182 | 7677 ft | 377 kts | 162° |
| 2026-04-26 14:39 | 32.68164 | -65.09179 | 7330 ft | 376 kts | 162° |
| 2026-04-26 14:39 | 32.65693 | -65.08178 | 6944 ft | 375 kts | 162° |
| 2026-04-26 14:39 | 32.63263 | -65.07197 | 6576 ft | 373 kts | 162° |
| 2026-04-26 14:40 | 32.60806 | -65.06205 | 6195 ft | 373 kts | 162° |
| 2026-04-26 14:40 | 32.58362 | -65.05218 | 5835 ft | 370 kts | 162° |
| 2026-04-26 14:40 | 32.55940 | -65.04241 | 5465 ft | 362 kts | 162° |
| 2026-04-26 14:40 | 32.53664 | -65.03324 | 5103 ft | 329 kts | 162° |
| 2026-04-26 14:41 | 32.51601 | -65.02491 | 4800 ft | 298 kts | 162° |
| 2026-04-26 14:41 | 32.49727 | -65.01735 | 4402 ft | 276 kts | 163° |
| 2026-04-26 14:41 | 32.47924 | -65.01013 | 4074 ft | 268 kts | 162° |
| 2026-04-26 14:41 | 32.46195 | -65.00322 | 3944 ft | 257 kts | 162° |
| 2026-04-26 14:42 | 32.44541 | -64.99660 | 3816 ft | 246 kts | 162° |
| 2026-04-26 14:42 | 32.42993 | -64.98917 | 3702 ft | 236 kts | 148° |
| 2026-04-26 14:42 | 32.41898 | -64.97726 | 3591 ft | 230 kts | 126° |
| 2026-04-26 14:42 | 32.41236 | -64.96014 | 3467 ft | 229 kts | 102° |
| 2026-04-26 14:43 | 32.40929 | -64.94198 | 3346 ft | 226 kts | 101° |
| 2026-04-26 14:43 | 32.40630 | -64.92417 | 3253 ft | 215 kts | 102° |
| 2026-04-26 14:43 | 32.40342 | -64.90715 | 3127 ft | 206 kts | 102° |
| 2026-04-26 14:43 | 32.40071 | -64.89103 | 2952 ft | 193 kts | 101° |
| 2026-04-26 14:44 | 32.39813 | -64.87581 | 2769 ft | 186 kts | 102° |
| 2026-04-26 14:44 | 32.39560 | -64.86100 | 2605 ft | 183 kts | 102° |
| 2026-04-26 14:44 | 32.39307 | -64.84631 | 2454 ft | 180 kts | 102° |
| 2026-04-26 14:44 | 32.39059 | -64.83194 | 2303 ft | 178 kts | 102° |
| 2026-04-26 14:45 | 32.38813 | -64.81771 | 2132 ft | 174 kts | 103° |
| 2026-04-26 14:45 | 32.38655 | -64.80853 | 2035 ft | 171 kts | 103° |
| 2026-04-26 14:45 | 32.38336 | -64.79024 | 1825 ft | 169 kts | 102° |
| 2026-04-26 14:45 | 32.38111 | -64.77713 | 1703 ft | 161 kts | 103° |
| 2026-04-26 14:46 | 32.37898 | -64.76479 | 1450 ft | 145 kts | 102° |
| 2026-04-26 14:46 | 32.37705 | -64.75359 | 1232 ft | 137 kts | 103° |
| 2026-04-26 14:46 | 32.37516 | -64.74272 | 1011 ft | 133 kts | 102° |
| 2026-04-26 14:46 | 32.37330 | -64.73206 | 817 ft | 131 kts | 102° |
| 2026-04-26 14:47 | 32.37146 | -64.72149 | 621 ft | 131 kts | 103° |
| 2026-04-26 14:47 | 32.36961 | -64.71097 | 388 ft | 132 kts | 102° |
| 2026-04-26 14:47 | 32.36784 | -64.70032 | 181 ft | 133 kts | 103° |
| 2026-04-26 14:47 | 32.36595 | -64.68970 | 46 ft | 130 kts | 103° |
| 2026-04-26 14:48 | 32.36439 | -64.68072 | 28 ft | 76 kts | 102° |
| 2026-04-26 14:48 | 32.36432 | -64.67832 | 25 ft | 1 kts | 23° |
| 2026-04-26 14:48 | 32.36510 | -64.67814 | 27 ft | 19 kts | 349° |
| 2026-04-26 14:48 | 32.36557 | -64.67939 | 27 ft | 17 kts | 281° |
| 2026-04-26 14:49 | 32.36583 | -64.68089 | 27 ft | 19 kts | 281° |
| 2026-04-26 14:49 | 32.36608 | -64.68240 | 27 ft | 18 kts | 281° |
| 2026-04-26 14:49 | 32.36669 | -64.68272 | 27 ft | 9 kts | 15° |
| 2026-04-26 14:49 | 32.36745 | -64.68257 | 21 ft | 10 kts | 323° |
| 2026-04-26 14:50 | 32.36745 | -64.68279 | 22 ft | 0 kts | 213° |
| 2026-04-26 14:50 | 32.36830 | -64.70299 | 222 ft | 132 kts | 102° |
| 2026-04-26 14:50 | 32.36642 | -64.69235 | 61 ft | 132 kts | 103° |
| 2026-04-26 14:51 | 32.36470 | -64.68249 | 29 ft | 98 kts | 101° |
| 2026-04-26 14:51 | 32.36425 | -64.67835 | 26 ft | 12 kts | 44° |
| 2026-04-26 14:51 | 32.36480 | -64.67813 | 28 ft | 0 kts | 10° |
| 2026-04-26 14:51 | 32.36508 | -64.69536 | 354 ft | 481 kts | 269° |
| 2026-04-26 14:52 | 32.36395 | -64.70275 | 24 ft | 0 kts | 70° |